sensor_id;sensor_type;location;lat;lon;timestamp;P1;durP1;ratioP1;P2;durP2;ratioP2
47778;SDS011;33538;48.432;11.350;2023-08-06T00:00:25;3.97;;;1.40;;
47778;SDS011;33538;48.432;11.350;2023-08-06T00:02:52;2.55;;;1.45;;
47778;SDS011;33538;48.432;11.350;2023-08-06T00:05:19;2.97;;;1.95;;
47778;SDS011;33538;48.432;11.350;2023-08-06T00:07:46;1.95;;;1.48;;
47778;SDS011;33538;48.432;11.350;2023-08-06T00:10:13;2.47;;;1.35;;
47778;SDS011;33538;48.432;11.350;2023-08-06T00:12:40;2.25;;;1.60;;
47778;SDS011;33538;48.432;11.350;2023-08-06T00:15:08;2.10;;;1.55;;
47778;SDS011;33538;48.432;11.350;2023-08-06T00:17:36;1.98;;;1.35;;
47778;SDS011;33538;48.432;11.350;2023-08-06T00:20:04;1.90;;;1.33;;
47778;SDS011;33538;48.432;11.350;2023-08-06T00:22:31;1.58;;;1.40;;
47778;SDS011;33538;48.432;11.350;2023-08-06T00:24:58;1.77;;;1.40;;
47778;SDS011;33538;48.432;11.350;2023-08-06T00:27:25;2.90;;;1.88;;
47778;SDS011;33538;48.432;11.350;2023-08-06T00:29:52;1.65;;;1.40;;
47778;SDS011;33538;48.432;11.350;2023-08-06T00:32:20;1.98;;;1.40;;
47778;SDS011;33538;48.432;11.350;2023-08-06T00:34:48;2.20;;;1.70;;
47778;SDS011;33538;48.432;11.350;2023-08-06T00:37:15;3.97;;;2.40;;
47778;SDS011;33538;48.432;11.350;2023-08-06T00:39:42;4.13;;;1.92;;
47778;SDS011;33538;48.432;11.350;2023-08-06T00:42:08;2.65;;;2.03;;
47778;SDS011;33538;48.432;11.350;2023-08-06T00:44:35;2.30;;;1.77;;
47778;SDS011;33538;48.432;11.350;2023-08-06T00:47:02;2.70;;;1.92;;
47778;SDS011;33538;48.432;11.350;2023-08-06T00:49:31;4.88;;;2.40;;
47778;SDS011;33538;48.432;11.350;2023-08-06T00:51:59;2.72;;;1.80;;
47778;SDS011;33538;48.432;11.350;2023-08-06T00:54:26;3.67;;;2.10;;
47778;SDS011;33538;48.432;11.350;2023-08-06T00:56:54;3.25;;;2.03;;
47778;SDS011;33538;48.432;11.350;2023-08-06T00:59:21;3.28;;;2.10;;
47778;SDS011;33538;48.432;11.350;2023-08-06T01:01:48;3.00;;;2.25;;
47778;SDS011;33538;48.432;11.350;2023-08-06T01:04:15;4.70;;;2.20;;
47778;SDS011;33538;48.432;11.350;2023-08-06T01:06:46;3.60;;;2.00;;
47778;SDS011;33538;48.432;11.350;2023-08-06T01:09:20;3.28;;;2.10;;
47778;SDS011;33538;48.432;11.350;2023-08-06T01:11:59;3.67;;;2.55;;
47778;SDS011;33538;48.432;11.350;2023-08-06T01:14:33;4.63;;;2.92;;
47778;SDS011;33538;48.432;11.350;2023-08-06T01:17:11;3.20;;;2.08;;
47778;SDS011;33538;48.432;11.350;2023-08-06T01:19:40;4.32;;;2.65;;
47778;SDS011;33538;48.432;11.350;2023-08-06T01:22:08;3.90;;;2.42;;
47778;SDS011;33538;48.432;11.350;2023-08-06T01:24:35;4.20;;;2.40;;
47778;SDS011;33538;48.432;11.350;2023-08-06T01:27:04;4.25;;;2.60;;
47778;SDS011;33538;48.432;11.350;2023-08-06T01:29:35;5.07;;;2.90;;
47778;SDS011;33538;48.432;11.350;2023-08-06T01:32:08;3.58;;;2.47;;
47778;SDS011;33538;48.432;11.350;2023-08-06T01:34:36;4.68;;;2.80;;
47778;SDS011;33538;48.432;11.350;2023-08-06T01:37:05;4.43;;;2.25;;
47778;SDS011;33538;48.432;11.350;2023-08-06T01:39:33;3.88;;;2.55;;
47778;SDS011;33538;48.432;11.350;2023-08-06T01:42:00;8.38;;;2.58;;
47778;SDS011;33538;48.432;11.350;2023-08-06T01:44:27;4.25;;;2.30;;
47778;SDS011;33538;48.432;11.350;2023-08-06T01:46:54;3.90;;;2.20;;
47778;SDS011;33538;48.432;11.350;2023-08-06T01:49:21;5.05;;;2.25;;
47778;SDS011;33538;48.432;11.350;2023-08-06T01:51:48;3.78;;;2.45;;
47778;SDS011;33538;48.432;11.350;2023-08-06T01:54:16;3.10;;;2.10;;
47778;SDS011;33538;48.432;11.350;2023-08-06T01:56:43;3.05;;;2.25;;
47778;SDS011;33538;48.432;11.350;2023-08-06T01:59:10;2.92;;;1.90;;
47778;SDS011;33538;48.432;11.350;2023-08-06T02:01:37;2.83;;;1.98;;
47778;SDS011;33538;48.432;11.350;2023-08-06T02:04:04;2.78;;;1.83;;
47778;SDS011;33538;48.432;11.350;2023-08-06T02:06:31;2.55;;;1.67;;
47778;SDS011;33538;48.432;11.350;2023-08-06T02:08:57;2.60;;;1.95;;
47778;SDS011;33538;48.432;11.350;2023-08-06T02:11:25;1.85;;;1.58;;
47778;SDS011;33538;48.432;11.350;2023-08-06T02:13:52;3.28;;;1.83;;
47778;SDS011;33538;48.432;11.350;2023-08-06T02:16:19;3.03;;;1.95;;
47778;SDS011;33538;48.432;11.350;2023-08-06T02:18:46;1.88;;;1.60;;
47778;SDS011;33538;48.432;11.350;2023-08-06T02:21:13;3.15;;;1.80;;
47778;SDS011;33538;48.432;11.350;2023-08-06T02:23:39;2.50;;;1.80;;
47778;SDS011;33538;48.432;11.350;2023-08-06T02:26:06;3.28;;;1.88;;
47778;SDS011;33538;48.432;11.350;2023-08-06T02:28:34;2.85;;;1.92;;
47778;SDS011;33538;48.432;11.350;2023-08-06T02:31:01;1.85;;;1.63;;
47778;SDS011;33538;48.432;11.350;2023-08-06T02:33:28;2.67;;;1.80;;
47778;SDS011;33538;48.432;11.350;2023-08-06T02:36:01;3.03;;;1.85;;
47778;SDS011;33538;48.432;11.350;2023-08-06T02:38:29;1.98;;;1.52;;
47778;SDS011;33538;48.432;11.350;2023-08-06T02:40:56;4.18;;;1.80;;
47778;SDS011;33538;48.432;11.350;2023-08-06T02:43:23;3.45;;;2.08;;
47778;SDS011;33538;48.432;11.350;2023-08-06T02:45:51;2.95;;;2.10;;
47778;SDS011;33538;48.432;11.350;2023-08-06T02:48:18;3.58;;;2.30;;
47778;SDS011;33538;48.432;11.350;2023-08-06T02:50:44;2.38;;;1.70;;
47778;SDS011;33538;48.432;11.350;2023-08-06T02:53:11;2.70;;;1.65;;
47778;SDS011;33538;48.432;11.350;2023-08-06T02:55:38;3.33;;;2.13;;
47778;SDS011;33538;48.432;11.350;2023-08-06T02:58:12;2.00;;;1.75;;
47778;SDS011;33538;48.432;11.350;2023-08-06T03:00:38;2.30;;;1.75;;
47778;SDS011;33538;48.432;11.350;2023-08-06T03:03:07;3.20;;;1.60;;
47778;SDS011;33538;48.432;11.350;2023-08-06T03:05:33;2.33;;;1.75;;
47778;SDS011;33538;48.432;11.350;2023-08-06T03:08:00;3.03;;;1.77;;
47778;SDS011;33538;48.432;11.350;2023-08-06T03:10:27;2.05;;;1.48;;
47778;SDS011;33538;48.432;11.350;2023-08-06T03:12:54;5.13;;;1.85;;
47778;SDS011;33538;48.432;11.350;2023-08-06T03:15:21;2.30;;;1.45;;
47778;SDS011;33538;48.432;11.350;2023-08-06T03:17:47;2.25;;;1.67;;
47778;SDS011;33538;48.432;11.350;2023-08-06T03:20:16;2.75;;;1.80;;
47778;SDS011;33538;48.432;11.350;2023-08-06T03:22:42;2.78;;;1.80;;
47778;SDS011;33538;48.432;11.350;2023-08-06T03:25:09;2.45;;;1.75;;
47778;SDS011;33538;48.432;11.350;2023-08-06T03:27:36;2.03;;;1.52;;
47778;SDS011;33538;48.432;11.350;2023-08-06T03:30:03;2.38;;;1.75;;
47778;SDS011;33538;48.432;11.350;2023-08-06T03:32:30;1.88;;;1.58;;
47778;SDS011;33538;48.432;11.350;2023-08-06T03:34:57;2.20;;;1.40;;
47778;SDS011;33538;48.432;11.350;2023-08-06T03:37:25;2.25;;;1.52;;
47778;SDS011;33538;48.432;11.350;2023-08-06T03:39:52;1.88;;;1.33;;
47778;SDS011;33538;48.432;11.350;2023-08-06T03:42:19;2.80;;;1.70;;
47778;SDS011;33538;48.432;11.350;2023-08-06T03:44:46;3.65;;;1.80;;
47778;SDS011;33538;48.432;11.350;2023-08-06T03:47:12;2.80;;;1.55;;
47778;SDS011;33538;48.432;11.350;2023-08-06T03:49:39;2.13;;;1.60;;
47778;SDS011;33538;48.432;11.350;2023-08-06T03:52:06;2.38;;;1.40;;
47778;SDS011;33538;48.432;11.350;2023-08-06T03:54:34;2.10;;;1.50;;
47778;SDS011;33538;48.432;11.350;2023-08-06T03:57:01;2.28;;;1.27;;
47778;SDS011;33538;48.432;11.350;2023-08-06T03:59:28;2.25;;;1.27;;
47778;SDS011;33538;48.432;11.350;2023-08-06T04:01:55;2.60;;;1.50;;
47778;SDS011;33538;48.432;11.350;2023-08-06T04:04:22;2.17;;;1.40;;
47778;SDS011;33538;48.432;11.350;2023-08-06T04:06:49;4.55;;;1.50;;
47778;SDS011;33538;48.432;11.350;2023-08-06T04:09:16;2.15;;;1.50;;
47778;SDS011;33538;48.432;11.350;2023-08-06T04:11:44;2.20;;;1.42;;
47778;SDS011;33538;48.432;11.350;2023-08-06T04:14:10;1.75;;;1.30;;
47778;SDS011;33538;48.432;11.350;2023-08-06T04:16:37;1.80;;;1.30;;
47778;SDS011;33538;48.432;11.350;2023-08-06T04:19:04;2.42;;;1.40;;
47778;SDS011;33538;48.432;11.350;2023-08-06T04:21:31;1.67;;;1.42;;
47778;SDS011;33538;48.432;11.350;2023-08-06T04:23:58;2.55;;;1.30;;
47778;SDS011;33538;48.432;11.350;2023-08-06T04:26:26;2.30;;;1.25;;
47778;SDS011;33538;48.432;11.350;2023-08-06T04:28:54;1.90;;;1.30;;
47778;SDS011;33538;48.432;11.350;2023-08-06T04:31:21;1.65;;;1.27;;
47778;SDS011;33538;48.432;11.350;2023-08-06T04:33:47;1.88;;;1.27;;
47778;SDS011;33538;48.432;11.350;2023-08-06T04:36:14;1.67;;;1.05;;
47778;SDS011;33538;48.432;11.350;2023-08-06T04:38:41;1.42;;;1.15;;
47778;SDS011;33538;48.432;11.350;2023-08-06T04:41:08;1.60;;;1.20;;
47778;SDS011;33538;48.432;11.350;2023-08-06T04:43:35;1.30;;;1.00;;
47778;SDS011;33538;48.432;11.350;2023-08-06T04:46:03;2.17;;;1.25;;
47778;SDS011;33538;48.432;11.350;2023-08-06T04:48:30;1.63;;;1.33;;
47778;SDS011;33538;48.432;11.350;2023-08-06T04:50:56;1.50;;;1.10;;
47778;SDS011;33538;48.432;11.350;2023-08-06T04:53:23;2.80;;;1.17;;
47778;SDS011;33538;48.432;11.350;2023-08-06T04:55:50;1.92;;;1.25;;
47778;SDS011;33538;48.432;11.350;2023-08-06T04:58:17;1.23;;;1.00;;
47778;SDS011;33538;48.432;11.350;2023-08-06T05:00:44;2.40;;;1.30;;
47778;SDS011;33538;48.432;11.350;2023-08-06T05:03:12;1.75;;;1.15;;
47778;SDS011;33538;48.432;11.350;2023-08-06T05:05:39;1.48;;;1.00;;
47778;SDS011;33538;48.432;11.350;2023-08-06T05:08:06;2.03;;;1.27;;
47778;SDS011;33538;48.432;11.350;2023-08-06T05:10:33;4.80;;;1.88;;
47778;SDS011;33538;48.432;11.350;2023-08-06T05:13:00;1.95;;;1.05;;
47778;SDS011;33538;48.432;11.350;2023-08-06T05:15:27;1.42;;;1.08;;
47778;SDS011;33538;48.432;11.350;2023-08-06T05:17:53;1.73;;;1.10;;
47778;SDS011;33538;48.432;11.350;2023-08-06T05:20:22;2.20;;;1.20;;
47778;SDS011;33538;48.432;11.350;2023-08-06T05:22:48;2.20;;;1.08;;
47778;SDS011;33538;48.432;11.350;2023-08-06T05:25:15;1.98;;;1.17;;
47778;SDS011;33538;48.432;11.350;2023-08-06T05:27:42;1.88;;;1.17;;
47778;SDS011;33538;48.432;11.350;2023-08-06T05:30:09;1.50;;;1.10;;
47778;SDS011;33538;48.432;11.350;2023-08-06T05:32:37;1.60;;;0.93;;
47778;SDS011;33538;48.432;11.350;2023-08-06T05:35:04;1.30;;;0.95;;
47778;SDS011;33538;48.432;11.350;2023-08-06T05:37:32;1.50;;;1.25;;
47778;SDS011;33538;48.432;11.350;2023-08-06T05:39:59;1.13;;;0.93;;
47778;SDS011;33538;48.432;11.350;2023-08-06T05:42:26;2.72;;;1.33;;
47778;SDS011;33538;48.432;11.350;2023-08-06T05:44:53;1.55;;;1.10;;
47778;SDS011;33538;48.432;11.350;2023-08-06T05:47:19;1.60;;;1.15;;
47778;SDS011;33538;48.432;11.350;2023-08-06T05:49:46;1.30;;;1.02;;
47778;SDS011;33538;48.432;11.350;2023-08-06T05:52:13;2.05;;;1.42;;
47778;SDS011;33538;48.432;11.350;2023-08-06T05:54:41;1.45;;;1.23;;
47778;SDS011;33538;48.432;11.350;2023-08-06T05:57:08;2.00;;;1.20;;
47778;SDS011;33538;48.432;11.350;2023-08-06T05:59:35;2.65;;;1.38;;
47778;SDS011;33538;48.432;11.350;2023-08-06T06:02:02;1.45;;;1.00;;
47778;SDS011;33538;48.432;11.350;2023-08-06T06:04:29;2.10;;;0.98;;
47778;SDS011;33538;48.432;11.350;2023-08-06T06:06:56;1.33;;;1.00;;
47778;SDS011;33538;48.432;11.350;2023-08-06T06:09:23;1.48;;;1.25;;
47778;SDS011;33538;48.432;11.350;2023-08-06T06:11:51;1.25;;;1.13;;
47778;SDS011;33538;48.432;11.350;2023-08-06T06:14:18;1.98;;;1.10;;
47778;SDS011;33538;48.432;11.350;2023-08-06T06:16:45;1.38;;;1.20;;
47778;SDS011;33538;48.432;11.350;2023-08-06T06:19:12;2.05;;;1.38;;
47778;SDS011;33538;48.432;11.350;2023-08-06T06:21:39;2.42;;;1.38;;
47778;SDS011;33538;48.432;11.350;2023-08-06T06:24:06;3.10;;;1.02;;
47778;SDS011;33538;48.432;11.350;2023-08-06T06:26:33;1.83;;;1.10;;
47778;SDS011;33538;48.432;11.350;2023-08-06T06:29:01;2.50;;;1.48;;
47778;SDS011;33538;48.432;11.350;2023-08-06T06:31:28;1.50;;;1.10;;
47778;SDS011;33538;48.432;11.350;2023-08-06T06:33:55;2.55;;;1.45;;
47778;SDS011;33538;48.432;11.350;2023-08-06T06:36:22;2.25;;;1.15;;
47778;SDS011;33538;48.432;11.350;2023-08-06T06:38:49;0.98;;;0.90;;
47778;SDS011;33538;48.432;11.350;2023-08-06T06:41:16;1.77;;;1.10;;
47778;SDS011;33538;48.432;11.350;2023-08-06T06:43:43;1.83;;;0.90;;
47778;SDS011;33538;48.432;11.350;2023-08-06T06:46:11;1.30;;;1.20;;
47778;SDS011;33538;48.432;11.350;2023-08-06T06:48:38;1.08;;;0.80;;
47778;SDS011;33538;48.432;11.350;2023-08-06T06:51:05;4.20;;;1.20;;
47778;SDS011;33538;48.432;11.350;2023-08-06T06:53:32;1.30;;;0.85;;
47778;SDS011;33538;48.432;11.350;2023-08-06T06:56:01;1.98;;;1.08;;
47778;SDS011;33538;48.432;11.350;2023-08-06T06:58:29;1.05;;;0.70;;
47778;SDS011;33538;48.432;11.350;2023-08-06T07:00:56;0.95;;;0.82;;
47778;SDS011;33538;48.432;11.350;2023-08-06T07:03:24;4.35;;;1.40;;
47778;SDS011;33538;48.432;11.350;2023-08-06T07:05:51;1.48;;;1.00;;
47778;SDS011;33538;48.432;11.350;2023-08-06T07:08:18;1.02;;;0.90;;
47778;SDS011;33538;48.432;11.350;2023-08-06T07:10:44;1.13;;;1.00;;
47778;SDS011;33538;48.432;11.350;2023-08-06T07:13:11;1.17;;;0.82;;
47778;SDS011;33538;48.432;11.350;2023-08-06T07:15:38;1.13;;;0.75;;
47778;SDS011;33538;48.432;11.350;2023-08-06T07:18:05;2.35;;;1.10;;
47778;SDS011;33538;48.432;11.350;2023-08-06T07:20:33;1.80;;;1.00;;
47778;SDS011;33538;48.432;11.350;2023-08-06T07:23:00;0.70;;;0.70;;
47778;SDS011;33538;48.432;11.350;2023-08-06T07:25:27;1.02;;;0.75;;
47778;SDS011;33538;48.432;11.350;2023-08-06T07:27:54;0.52;;;0.52;;
47778;SDS011;33538;48.432;11.350;2023-08-06T07:30:20;1.27;;;0.70;;
47778;SDS011;33538;48.432;11.350;2023-08-06T07:32:47;0.77;;;0.60;;
47778;SDS011;33538;48.432;11.350;2023-08-06T07:35:14;1.48;;;0.50;;
47778;SDS011;33538;48.432;11.350;2023-08-06T07:37:42;0.60;;;0.50;;
47778;SDS011;33538;48.432;11.350;2023-08-06T07:40:09;0.68;;;0.43;;
47778;SDS011;33538;48.432;11.350;2023-08-06T07:42:37;0.93;;;0.50;;
47778;SDS011;33538;48.432;11.350;2023-08-06T07:45:04;0.25;;;0.25;;
47778;SDS011;33538;48.432;11.350;2023-08-06T07:47:31;0.90;;;0.60;;
47778;SDS011;33538;48.432;11.350;2023-08-06T07:49:58;0.47;;;0.38;;
47778;SDS011;33538;48.432;11.350;2023-08-06T07:52:25;0.40;;;0.40;;
47778;SDS011;33538;48.432;11.350;2023-08-06T07:54:53;0.20;;;0.20;;
47778;SDS011;33538;48.432;11.350;2023-08-06T07:57:20;0.80;;;0.50;;
47778;SDS011;33538;48.432;11.350;2023-08-06T07:59:47;0.80;;;0.50;;
47778;SDS011;33538;48.432;11.350;2023-08-06T08:02:14;0.68;;;0.60;;
47778;SDS011;33538;48.432;11.350;2023-08-06T08:04:40;0.93;;;0.50;;
47778;SDS011;33538;48.432;11.350;2023-08-06T08:07:09;3.40;;;0.70;;
47778;SDS011;33538;48.432;11.350;2023-08-06T08:09:36;0.40;;;0.20;;
47778;SDS011;33538;48.432;11.350;2023-08-06T08:12:04;1.13;;;0.50;;
47778;SDS011;33538;48.432;11.350;2023-08-06T08:14:31;0.88;;;0.52;;
47778;SDS011;33538;48.432;11.350;2023-08-06T08:16:58;0.95;;;0.40;;
47778;SDS011;33538;48.432;11.350;2023-08-06T08:19:25;0.65;;;0.40;;
47778;SDS011;33538;48.432;11.350;2023-08-06T08:21:52;0.32;;;0.30;;
47778;SDS011;33538;48.432;11.350;2023-08-06T08:24:19;0.60;;;0.40;;
47778;SDS011;33538;48.432;11.350;2023-08-06T08:26:46;0.57;;;0.32;;
47778;SDS011;33538;48.432;11.350;2023-08-06T08:29:14;0.47;;;0.40;;
47778;SDS011;33538;48.432;11.350;2023-08-06T08:31:41;0.52;;;0.45;;
47778;SDS011;33538;48.432;11.350;2023-08-06T08:34:08;1.23;;;0.28;;
47778;SDS011;33538;48.432;11.350;2023-08-06T08:36:34;0.82;;;0.55;;
47778;SDS011;33538;48.432;11.350;2023-08-06T08:39:01;0.60;;;0.30;;
47778;SDS011;33538;48.432;11.350;2023-08-06T08:41:28;1.30;;;0.60;;
47778;SDS011;33538;48.432;11.350;2023-08-06T08:43:55;1.10;;;0.60;;
47778;SDS011;33538;48.432;11.350;2023-08-06T08:46:25;0.50;;;0.35;;
47778;SDS011;33538;48.432;11.350;2023-08-06T08:48:54;0.75;;;0.30;;
47778;SDS011;33538;48.432;11.350;2023-08-06T08:51:21;1.45;;;0.50;;
47778;SDS011;33538;48.432;11.350;2023-08-06T08:53:49;0.82;;;0.45;;
47778;SDS011;33538;48.432;11.350;2023-08-06T08:56:18;0.30;;;0.30;;
47778;SDS011;33538;48.432;11.350;2023-08-06T08:58:45;0.32;;;0.32;;
47778;SDS011;33538;48.432;11.350;2023-08-06T09:01:12;1.05;;;0.40;;
47778;SDS011;33538;48.432;11.350;2023-08-06T09:03:41;0.60;;;0.50;;
47778;SDS011;33538;48.432;11.350;2023-08-06T09:06:10;3.83;;;0.47;;
47778;SDS011;33538;48.432;11.350;2023-08-06T09:08:41;0.35;;;0.35;;
47778;SDS011;33538;48.432;11.350;2023-08-06T09:11:12;0.20;;;0.20;;
47778;SDS011;33538;48.432;11.350;2023-08-06T09:13:39;0.63;;;0.40;;
47778;SDS011;33538;48.432;11.350;2023-08-06T09:16:06;0.20;;;0.20;;
47778;SDS011;33538;48.432;11.350;2023-08-06T09:18:33;0.30;;;0.30;;
47778;SDS011;33538;48.432;11.350;2023-08-06T09:21:01;0.20;;;0.20;;
47778;SDS011;33538;48.432;11.350;2023-08-06T09:23:28;2.40;;;0.40;;
47778;SDS011;33538;48.432;11.350;2023-08-06T09:25:56;0.43;;;0.30;;
47778;SDS011;33538;48.432;11.350;2023-08-06T09:28:23;3.33;;;0.40;;
47778;SDS011;33538;48.432;11.350;2023-08-06T09:30:50;0.20;;;0.20;;
47778;SDS011;33538;48.432;11.350;2023-08-06T09:33:18;0.32;;;0.30;;
47778;SDS011;33538;48.432;11.350;2023-08-06T09:35:46;1.27;;;0.20;;
47778;SDS011;33538;48.432;11.350;2023-08-06T09:38:14;2.83;;;0.25;;
47778;SDS011;33538;48.432;11.350;2023-08-06T09:40:41;2.08;;;0.30;;
47778;SDS011;33538;48.432;11.350;2023-08-06T09:43:08;0.47;;;0.20;;
47778;SDS011;33538;48.432;11.350;2023-08-06T09:45:35;0.50;;;0.50;;
47778;SDS011;33538;48.432;11.350;2023-08-06T09:48:03;0.22;;;0.20;;
47778;SDS011;33538;48.432;11.350;2023-08-06T09:50:31;0.15;;;0.15;;
47778;SDS011;33538;48.432;11.350;2023-08-06T09:53:00;0.13;;;0.13;;
47778;SDS011;33538;48.432;11.350;2023-08-06T09:55:28;1.13;;;0.35;;
47778;SDS011;33538;48.432;11.350;2023-08-06T09:57:55;0.52;;;0.35;;
47778;SDS011;33538;48.432;11.350;2023-08-06T10:00:22;0.43;;;0.30;;
47778;SDS011;33538;48.432;11.350;2023-08-06T10:02:49;0.10;;;0.10;;
47778;SDS011;33538;48.432;11.350;2023-08-06T10:05:16;0.57;;;0.25;;
47778;SDS011;33538;48.432;11.350;2023-08-06T10:07:44;0.73;;;0.20;;
47778;SDS011;33538;48.432;11.350;2023-08-06T10:10:12;0.10;;;0.10;;
47778;SDS011;33538;48.432;11.350;2023-08-06T10:12:40;0.20;;;0.20;;
47778;SDS011;33538;48.432;11.350;2023-08-06T10:15:12;0.10;;;0.10;;
47778;SDS011;33538;48.432;11.350;2023-08-06T10:17:42;0.10;;;0.10;;
47778;SDS011;33538;48.432;11.350;2023-08-06T10:20:17;0.10;;;0.10;;
47778;SDS011;33538;48.432;11.350;2023-08-06T10:22:43;3.35;;;0.60;;
47778;SDS011;33538;48.432;11.350;2023-08-06T10:25:10;0.00;;;0.00;;
47778;SDS011;33538;48.432;11.350;2023-08-06T10:27:52;2.53;;;0.20;;
47778;SDS011;33538;48.432;11.350;2023-08-06T10:30:24;0.20;;;0.20;;
47778;SDS011;33538;48.432;11.350;2023-08-06T10:32:52;0.10;;;0.10;;
47778;SDS011;33538;48.432;11.350;2023-08-06T10:35:34;0.55;;;0.10;;
47778;SDS011;33538;48.432;11.350;2023-08-06T10:38:07;0.10;;;0.10;;
47778;SDS011;33538;48.432;11.350;2023-08-06T10:40:35;2.20;;;0.20;;
47778;SDS011;33538;48.432;11.350;2023-08-06T10:43:04;0.13;;;0.10;;
47778;SDS011;33538;48.432;11.350;2023-08-06T10:45:34;0.05;;;0.00;;
47778;SDS011;33538;48.432;11.350;2023-08-06T10:48:02;0.20;;;0.20;;
47778;SDS011;33538;48.432;11.350;2023-08-06T10:50:29;0.20;;;0.20;;
47778;SDS011;33538;48.432;11.350;2023-08-06T10:52:57;0.22;;;0.10;;
47778;SDS011;33538;48.432;11.350;2023-08-06T10:55:29;0.45;;;0.08;;
47778;SDS011;33538;48.432;11.350;2023-08-06T10:57:56;0.10;;;0.10;;
47778;SDS011;33538;48.432;11.350;2023-08-06T11:00:25;0.10;;;0.10;;
47778;SDS011;33538;48.432;11.350;2023-08-06T11:02:52;3.03;;;0.10;;
47778;SDS011;33538;48.432;11.350;2023-08-06T11:05:20;0.17;;;0.10;;
47778;SDS011;33538;48.432;11.350;2023-08-06T11:07:47;0.08;;;0.08;;
47778;SDS011;33538;48.432;11.350;2023-08-06T11:10:14;0.30;;;0.20;;
47778;SDS011;33538;48.432;11.350;2023-08-06T11:12:41;0.00;;;0.00;;
47778;SDS011;33538;48.432;11.350;2023-08-06T11:15:09;0.10;;;0.10;;
47778;SDS011;33538;48.432;11.350;2023-08-06T11:17:39;0.00;;;0.00;;
47778;SDS011;33538;48.432;11.350;2023-08-06T11:20:07;0.00;;;0.00;;
47778;SDS011;33538;48.432;11.350;2023-08-06T11:22:35;0.43;;;0.10;;
47778;SDS011;33538;48.432;11.350;2023-08-06T11:25:03;0.00;;;0.00;;
47778;SDS011;33538;48.432;11.350;2023-08-06T11:27:31;0.00;;;0.00;;
47778;SDS011;33538;48.432;11.350;2023-08-06T11:29:58;0.10;;;0.10;;
47778;SDS011;33538;48.432;11.350;2023-08-06T11:32:25;0.08;;;0.08;;
47778;SDS011;33538;48.432;11.350;2023-08-06T11:34:53;0.00;;;0.00;;
47778;SDS011;33538;48.432;11.350;2023-08-06T11:37:20;0.35;;;0.10;;
47778;SDS011;33538;48.432;11.350;2023-08-06T11:39:49;0.05;;;0.05;;
47778;SDS011;33538;48.432;11.350;2023-08-06T11:42:15;0.32;;;0.20;;
47778;SDS011;33538;48.432;11.350;2023-08-06T11:44:43;0.05;;;0.00;;
47778;SDS011;33538;48.432;11.350;2023-08-06T11:47:11;0.00;;;0.00;;
47778;SDS011;33538;48.432;11.350;2023-08-06T11:49:40;0.00;;;0.00;;
47778;SDS011;33538;48.432;11.350;2023-08-06T11:52:10;0.10;;;0.10;;
47778;SDS011;33538;48.432;11.350;2023-08-06T11:54:39;0.10;;;0.10;;
47778;SDS011;33538;48.432;11.350;2023-08-06T11:57:06;0.03;;;0.03;;
47778;SDS011;33538;48.432;11.350;2023-08-06T11:59:33;0.10;;;0.10;;
47778;SDS011;33538;48.432;11.350;2023-08-06T12:02:01;0.03;;;0.03;;
47778;SDS011;33538;48.432;11.350;2023-08-06T12:04:28;2.13;;;0.10;;
47778;SDS011;33538;48.432;11.350;2023-08-06T12:06:55;0.10;;;0.10;;
47778;SDS011;33538;48.432;11.350;2023-08-06T12:09:32;0.73;;;0.20;;
47778;SDS011;33538;48.432;11.350;2023-08-06T12:11:59;0.10;;;0.08;;
47778;SDS011;33538;48.432;11.350;2023-08-06T12:14:26;0.10;;;0.08;;
47778;SDS011;33538;48.432;11.350;2023-08-06T12:16:53;0.08;;;0.08;;
47778;SDS011;33538;48.432;11.350;2023-08-06T12:19:19;0.05;;;0.00;;
47778;SDS011;33538;48.432;11.350;2023-08-06T12:21:46;0.10;;;0.10;;
47778;SDS011;33538;48.432;11.350;2023-08-06T12:24:13;0.00;;;0.00;;
47778;SDS011;33538;48.432;11.350;2023-08-06T12:26:41;0.35;;;0.10;;
47778;SDS011;33538;48.432;11.350;2023-08-06T12:29:08;0.00;;;0.00;;
47778;SDS011;33538;48.432;11.350;2023-08-06T12:31:35;0.00;;;0.00;;
47778;SDS011;33538;48.432;11.350;2023-08-06T12:34:01;0.20;;;0.20;;
47778;SDS011;33538;48.432;11.350;2023-08-06T12:36:28;0.10;;;0.00;;
47778;SDS011;33538;48.432;11.350;2023-08-06T12:38:55;0.10;;;0.10;;
47778;SDS011;33538;48.432;11.350;2023-08-06T12:41:22;0.00;;;0.00;;
47778;SDS011;33538;48.432;11.350;2023-08-06T12:43:50;0.70;;;0.20;;
47778;SDS011;33538;48.432;11.350;2023-08-06T12:46:17;0.13;;;0.08;;
47778;SDS011;33538;48.432;11.350;2023-08-06T12:48:44;0.08;;;0.00;;
47778;SDS011;33538;48.432;11.350;2023-08-06T12:51:11;0.00;;;0.00;;
47778;SDS011;33538;48.432;11.350;2023-08-06T12:53:37;0.00;;;0.00;;
47778;SDS011;33538;48.432;11.350;2023-08-06T12:56:04;0.00;;;0.00;;
47778;SDS011;33538;48.432;11.350;2023-08-06T12:58:31;0.00;;;0.00;;
47778;SDS011;33538;48.432;11.350;2023-08-06T13:00:59;0.10;;;0.10;;
47778;SDS011;33538;48.432;11.350;2023-08-06T13:03:26;0.00;;;0.00;;
47778;SDS011;33538;48.432;11.350;2023-08-06T13:05:56;0.22;;;0.00;;
47778;SDS011;33538;48.432;11.350;2023-08-06T13:08:23;0.00;;;0.00;;
47778;SDS011;33538;48.432;11.350;2023-08-06T13:10:50;0.10;;;0.10;;
47778;SDS011;33538;48.432;11.350;2023-08-06T13:13:17;0.10;;;0.08;;
47778;SDS011;33538;48.432;11.350;2023-08-06T13:15:43;0.00;;;0.00;;
47778;SDS011;33538;48.432;11.350;2023-08-06T13:18:12;0.00;;;0.00;;
47778;SDS011;33538;48.432;11.350;2023-08-06T13:20:39;0.10;;;0.00;;
47778;SDS011;33538;48.432;11.350;2023-08-06T13:23:05;0.10;;;0.10;;
47778;SDS011;33538;48.432;11.350;2023-08-06T13:25:32;0.10;;;0.10;;
47778;SDS011;33538;48.432;11.350;2023-08-06T13:27:59;0.00;;;0.00;;
47778;SDS011;33538;48.432;11.350;2023-08-06T13:30:26;0.00;;;0.00;;
47778;SDS011;33538;48.432;11.350;2023-08-06T13:32:53;0.22;;;0.05;;
47778;SDS011;33538;48.432;11.350;2023-08-06T13:35:21;0.00;;;0.00;;
47778;SDS011;33538;48.432;11.350;2023-08-06T13:37:48;0.00;;;0.00;;
47778;SDS011;33538;48.432;11.350;2023-08-06T13:40:15;0.17;;;0.17;;
47778;SDS011;33538;48.432;11.350;2023-08-06T13:42:42;0.00;;;0.00;;
47778;SDS011;33538;48.432;11.350;2023-08-06T13:45:09;0.10;;;0.10;;
47778;SDS011;33538;48.432;11.350;2023-08-06T13:47:36;0.00;;;0.00;;
47778;SDS011;33538;48.432;11.350;2023-08-06T13:50:03;0.05;;;0.05;;
47778;SDS011;33538;48.432;11.350;2023-08-06T13:52:32;0.00;;;0.00;;
47778;SDS011;33538;48.432;11.350;2023-08-06T13:54:58;0.10;;;0.10;;
47778;SDS011;33538;48.432;11.350;2023-08-06T13:57:25;0.00;;;0.00;;
47778;SDS011;33538;48.432;11.350;2023-08-06T13:59:52;0.22;;;0.13;;
47778;SDS011;33538;48.432;11.350;2023-08-06T14:02:19;0.10;;;0.10;;
47778;SDS011;33538;48.432;11.350;2023-08-06T14:04:46;0.05;;;0.05;;
47778;SDS011;33538;48.432;11.350;2023-08-06T14:07:13;0.22;;;0.10;;
47778;SDS011;33538;48.432;11.350;2023-08-06T14:09:41;0.10;;;0.10;;
47778;SDS011;33538;48.432;11.350;2023-08-06T14:12:08;0.25;;;0.20;;
47778;SDS011;33538;48.432;11.350;2023-08-06T14:14:34;0.63;;;0.08;;
47778;SDS011;33538;48.432;11.350;2023-08-06T14:17:01;0.10;;;0.10;;
47778;SDS011;33538;48.432;11.350;2023-08-06T14:19:29;0.35;;;0.13;;
47778;SDS011;33538;48.432;11.350;2023-08-06T14:21:55;0.08;;;0.08;;
47778;SDS011;33538;48.432;11.350;2023-08-06T14:24:22;0.00;;;0.00;;
47778;SDS011;33538;48.432;11.350;2023-08-06T14:26:50;0.10;;;0.10;;
47778;SDS011;33538;48.432;11.350;2023-08-06T14:29:18;0.00;;;0.00;;
47778;SDS011;33538;48.432;11.350;2023-08-06T14:31:45;0.10;;;0.10;;
47778;SDS011;33538;48.432;11.350;2023-08-06T14:34:11;0.10;;;0.10;;